GB-0204 weather

Plaistows Airfield
England, United Kingdom

Public forecast

Using degrees Celsius for public forecast. Weather courtesy of forecast.io.

METAR (pilot weather report)

Closest report is London Luton Airport, 8.8 nm (16.2 km) N. Retrieved 2019/03/23 14:20 UTC (4 minutes ago):

EGGW 231420Z AUTO 03010KT 010V080 9999 NCD 11/02 Q1032

TAF (pilot weather forecast)

Closest forecast is London Luton Airport, 8.8 nm (16.2 km) N. Retrieved 2019/03/23 12:15 UTC (2 hours ago):

TAF EGGW 231104Z 2312/2412 02011KT 9999 SCT030 BECMG 2320/2323 VRB04KT PROB30 TEMPO 2402/2408 8000 BECMG 2410/2412 32010KT